Time;durP1;ratioP1;P1;durP2;ratioP2;P2;SDS_P1;SDS_P2;PMS_P1;PMS_P2;Temp;Humidity;BMP_temperature;BMP_pressure;BME280_temperature;BME280_humidity;BME280_pressure;Samples;Min_cycle;Max_cycle;Signal;HPM_P1;HPM_P2
2021/11/12 00:12:47;;;;;;;;;31.25;30.00;;;;;20.45;36.39;101676.03;5057507;28;45380;-48
2021/11/12 00:15:12;;;;;;;;;28.00;26.75;;;;;20.40;36.15;101670.09;5057083;28;46598;-53
2021/11/12 00:17:40;;;;;;;;;33.75;30.50;;;;;20.44;36.56;101678.75;5056900;28;45363;-45
2021/11/12 00:20:06;;;;;;;;;34.25;31.25;;;;;20.42;36.55;101673.53;5057218;28;45463;-51
2021/11/12 00:22:32;;;;;;;;;29.50;28.00;;;;;20.43;36.34;101671.78;5057180;28;45304;-49
2021/11/12 00:25:01;;;;;;;;;32.50;27.00;;;;;20.42;36.71;101675.31;5056587;28;46533;-47
2021/11/12 00:27:28;;;;;;;;;29.00;26.75;;;;;20.40;36.44;101678.00;5056925;28;45956;-51
2021/11/12 00:30:04;;;;;;;;;28.25;28.00;;;;;20.37;36.33;101672.88;5056902;28;45260;-46
2021/11/12 00:35:10;;;;;;;;;29.25;25.00;;;;;20.38;36.49;101667.53;5056461;28;46101;-46
2021/11/12 00:40:20;;;;;;;;;32.00;29.75;;;;;20.36;36.17;101666.75;5056767;28;45367;-46
2021/11/12 00:45:27;;;;;;;;;36.50;29.50;;;;;20.30;36.13;101648.56;5056460;28;45292;-48
2021/11/12 00:48:15;;;;;;;;;30.25;29.50;;;;;20.30;36.19;101651.22;5056471;28;45427;-52
2021/11/12 00:50:58;;;;;;;;;30.00;27.75;;;;;20.32;36.37;101657.28;5056800;28;45249;-49
2021/11/12 00:55:49;;;;;;;;;32.00;26.25;;;;;20.32;36.54;101654.66;5056292;28;46184;-54
2021/11/12 00:58:16;;;;;;;;;30.00;25.25;;;;;20.31;36.29;101657.31;5056652;28;45309;-48
2021/11/12 01:00:45;;;;;;;;;28.50;27.25;;;;;20.31;36.05;101657.31;5056510;28;45231;-45
2021/11/12 01:03:10;;;;;;;;;27.75;27.50;;;;;20.30;36.09;101661.75;5056601;28;45326;-48
2021/11/12 01:05:36;;;;;;;;;29.00;28.00;;;;;20.30;36.52;101663.50;5056059;28;46000;-49
2021/11/12 01:08:02;;;;;;;;;28.50;26.25;;;;;20.28;36.63;101658.31;5056406;28;45898;-49
2021/11/12 01:10:29;;;;;;;;;25.75;24.25;;;;;20.28;36.41;101663.56;5056375;28;45351;-54
2021/11/12 01:12:57;;;;;;;;;31.75;28.00;;;;;20.28;36.63;101657.47;5056466;28;45341;-53
2021/11/12 01:15:24;;;;;;;;;27.50;24.50;;;;;20.27;36.43;101651.31;5056085;28;46243;-54
2021/11/12 01:17:50;;;;;;;;;32.00;29.75;;;;;20.26;36.42;101644.34;5056703;28;45804;-46
2021/11/12 01:20:17;;;;;;;;;34.00;29.00;;;;;20.24;36.22;101640.91;5060114;28;45405;-54
2021/11/12 01:22:44;;;;;;;;;28.75;28.50;;;;;20.23;36.63;101633.94;5060194;28;45371;-53
2021/11/12 01:25:12;;;;;;;;;28.75;25.50;;;;;20.22;36.20;101638.34;5058394;28;47122;-55
2021/11/12 01:27:39;;;;;;;;;31.00;28.25;;;;;20.24;36.45;101639.16;5059691;28;45915;-48
2021/11/12 01:30:06;;;;;;;;;27.50;26.50;;;;;20.25;36.55;101632.09;5059790;28;45699;-55
2021/11/12 01:32:32;;;;;;;;;31.25;28.00;;;;;20.28;36.68;101631.97;5060079;28;45403;-55
2021/11/12 01:35:00;;;;;;;;;26.75;25.25;;;;;20.31;36.08;101637.13;5059544;28;45347;-50
2021/11/12 01:37:28;;;;;;;;;32.00;28.00;;;;;20.34;36.52;101623.81;5059598;28;45207;-52
2021/11/12 01:39:58;;;;;;;;;28.75;26.25;;;;;20.34;36.80;101622.97;5059651;28;45290;-49
2021/11/12 01:42:47;;;;;;;;;30.00;27.25;;;;;20.44;36.32;101626.09;5059701;28;45487;-45
2021/11/12 01:45:12;;;;;;;;;33.25;27.50;;;;;20.47;36.75;101623.31;5059352;28;46108;-49
2021/11/12 01:48:12;;;;;;;;;26.25;25.25;;;;;20.53;36.03;101620.41;5059480;28;45291;-51
2021/11/12 01:50:26;;;;;;;;;21.75;19.00;;;;;20.59;36.62;101622.78;5059016;28;45478;-45
2021/11/12 01:52:56;;;;;;;;;27.50;25.50;;;;;20.60;36.25;101621.84;5059527;28;45423;-45
2021/11/12 02:00:29;;;;;;;;;27.25;23.75;;;;;20.76;36.29;101618.59;5059358;28;45305;-46
2021/11/12 02:02:56;;;;;;;;;24.00;22.00;;;;;20.76;35.92;101615.97;5059405;28;45598;-45
2021/11/12 02:05:23;;;;;;;;;30.00;26.25;;;;;20.82;36.28;101613.06;5059001;28;46206;-45
2021/11/12 02:07:48;;;;;;;;;26.75;23.75;;;;;20.85;36.14;101605.84;5059507;28;45777;-49
2021/11/12 02:10:21;;;;;;;;;24.75;23.25;;;;;20.88;35.75;101604.88;5059107;28;45487;-45
2021/11/12 02:12:57;;;;;;;;;22.25;21.50;;;;;20.91;36.24;101603.88;5059326;28;45457;-45
2021/11/12 02:15:23;;;;;;;;;27.50;22.25;;;;;20.87;35.75;101592.63;5058629;28;46584;-45
2021/11/12 02:17:58;;;;;;;;;30.00;28.50;;;;;20.88;35.55;101589.09;5059318;28;45783;-46
2021/11/12 02:20:39;;;;;;;;;28.50;25.75;;;;;20.94;35.89;101596.69;5058689;28;45325;-45
2021/11/12 02:23:05;;;;;;;;;31.25;25.50;;;;;20.98;35.76;101597.41;5043179;28;45387;-46
2021/11/12 02:25:40;;;;;;;;;26.25;22.50;;;;;20.99;35.57;101591.22;5057260;28;47200;-46
2021/11/12 02:28:09;;;;;;;;;25.75;24.00;;;;;21.01;35.48;101587.56;5058498;28;45867;-45
2021/11/12 02:30:36;;;;;;;;;30.25;26.50;;;;;20.97;35.38;101572.84;5058313;28;45408;-46
2021/11/12 02:33:17;;;;;;;;;35.00;26.75;;;;;21.03;35.56;101586.66;5058882;28;45262;-45
2021/11/12 02:36:09;;;;;;;;;28.50;25.75;;;;;21.03;35.53;101589.28;5057118;28;46239;-46
2021/11/12 02:38:38;;;;;;;;;28.75;24.75;;;;;21.05;35.30;101592.72;5058324;28;45917;-45
2021/11/12 02:41:05;;;;;;;;;26.75;24.25;;;;;21.01;35.43;101584.09;5058637;28;45247;-47
2021/11/12 02:43:32;;;;;;;;;24.25;21.00;;;;;21.03;35.92;101582.25;5058664;28;45462;-47
2021/11/12 02:46:01;;;;;;;;;22.00;21.25;;;;;21.05;35.21;101590.09;5058360;28;46213;-50
2021/11/12 02:48:27;;;;;;;;;22.75;21.50;;;;;21.04;35.35;101588.38;5058354;28;45743;-49
2021/11/12 02:50:54;;;;;;;;;26.25;23.00;;;;;21.00;35.42;101583.22;5058662;28;45342;-47
2021/11/12 02:53:19;;;;;;;;;26.00;22.00;;;;;20.98;35.79;101584.22;5057652;28;45189;-48
2021/11/12 02:55:45;;;;;;;;;23.25;22.00;;;;;21.01;35.71;101584.94;5056848;28;45640;-51
2021/11/12 02:58:15;;;;;;;;;19.50;19.50;;;;;20.97;35.71;101582.53;5058202;28;45438;-48
2021/11/12 03:00:42;;;;;;;;;25.00;21.75;;;;;21.01;35.34;101582.31;5058401;28;45242;-49
2021/11/12 03:03:08;;;;;;;;;24.25;21.00;;;;;21.00;35.25;101580.59;5058540;28;45347;-45
2021/11/12 03:05:35;;;;;;;;;22.75;20.25;;;;;21.00;35.74;101575.31;5039839;28;48189;-51
2021/11/12 03:08:01;;;;;;;;;21.75;20.50;;;;;21.00;35.52;101582.38;5058128;28;45352;-49
2021/11/12 03:10:28;;;;;;;;;21.25;20.25;;;;;21.00;35.52;101590.28;5058192;28;45452;-52
2021/11/12 03:12:53;;;;;;;;;22.25;22.25;;;;;20.99;35.64;101581.53;5058658;28;45360;-56
2021/11/12 03:15:19;;;;;;;;;25.00;22.25;;;;;20.95;35.39;101573.81;5039810;28;46403;-56
2021/11/12 03:17:47;;;;;;;;;20.75;20.25;;;;;20.97;35.38;101575.47;5057951;28;45429;-56
2021/11/12 03:20:14;;;;;;;;;21.25;20.00;;;;;20.97;35.16;101574.63;5057938;28;45182;-57
2021/11/12 03:22:46;;;;;;;;;21.75;21.00;;;;;20.95;35.32;101579.97;5058115;28;45526;-53
2021/11/12 03:25:23;;;;;;;;;15.25;12.50;;;;;20.93;35.21;101575.69;5057674;28;46337;-57
2021/11/12 03:28:17;;;;;;;;;24.50;22.00;;;;;20.91;35.72;101588.91;5039736;28;45852;-57
2021/11/12 04:03:13;;;;;;;;;22.00;18.25;;;;;20.62;35.40;101543.63;5057371;28;45365;-49
2021/11/12 05:34:43;;;;;;;;;18.00;16.00;;;;;21.12;34.83;101414.91;5056166;28;45818;-51
2021/11/12 05:45:33;;;;;;;;;16.25;14.50;;;;;21.05;35.10;101424.91;5055787;28;45451;-53
2021/11/12 05:51:11;;;;;;;;;11.75;11.50;;;;;21.05;35.03;101438.09;5054677;28;45403;-56
2021/11/12 05:56:21;;;;;;;;;16.00;16.00;;;;;21.00;34.59;101425.09;5055675;28;45339;-53
2021/11/12 05:58:46;;;;;;;;;12.50;12.50;;;;;20.99;34.50;101433.09;5037637;28;45449;-55
2021/11/12 06:01:12;;;;;;;;;16.25;14.25;;;;;20.97;34.58;101419.13;5055718;28;45390;-53
2021/11/12 06:03:37;;;;;;;;;16.25;15.75;;;;;20.92;34.74;101408.81;5055996;28;45686;-55
2021/11/12 06:06:03;;;;;;;;;14.75;14.25;;;;;20.97;34.78;101413.88;5059098;28;45622;-55
2021/11/12 06:08:28;;;;;;;;;19.00;16.25;;;;;20.96;34.53;101413.03;5041004;28;45809;-53
2021/11/12 06:10:53;;;;;;;;;18.75;14.75;;;;;20.95;34.80;101421.84;5059161;28;45282;-52
2021/11/12 06:13:19;;;;;;;;;16.25;15.00;;;;;20.92;34.99;101408.81;5059164;28;45614;-49
2021/11/12 06:15:44;;;;;;;;;17.75;14.50;;;;;20.96;34.80;101413.03;5058848;28;47314;-48
2021/11/12 06:18:10;;;;;;;;;17.50;15.00;;;;;20.94;34.64;101414.88;5058835;28;45352;-52
2021/11/12 06:20:36;;;;;;;;;20.00;13.00;;;;;20.93;34.32;101407.91;5058986;28;45466;-54
2021/11/12 06:23:01;;;;;;;;;18.50;17.25;;;;;20.84;34.62;101393.38;5057799;28;45589;-55
2021/11/12 06:25:27;;;;;;;;;14.25;14.00;;;;;20.86;34.92;101409.13;5058248;28;47070;-49
2021/11/12 06:27:53;;;;;;;;;14.50;14.00;;;;;20.83;35.10;101407.50;5058386;28;45868;-50
2021/11/12 06:30:18;;;;;;;;;14.50;13.50;;;;;20.81;35.29;101408.47;5058569;28;45320;-49
2021/11/12 06:32:44;;;;;;;;;14.00;12.25;;;;;20.81;35.11;101411.09;5058594;28;45629;-47
2021/11/12 06:35:10;;;;;;;;;16.00;14.00;;;;;20.78;35.00;101411.28;5058189;28;46577;-44
2021/11/12 06:37:36;;;;;;;;;13.50;11.75;;;;;20.77;35.32;101413.03;5058211;28;45947;-43
2021/11/12 06:40:02;;;;;;;;;12.25;10.25;;;;;20.75;35.13;101409.63;5058573;28;45943;-45
2021/11/12 06:42:30;;;;;;;;;14.75;13.50;;;;;20.72;34.77;101406.25;5058514;28;45641;-51
2021/11/12 06:52:35;;;;;;;;;13.75;13.00;;;;;20.68;35.04;101422.19;5058509;28;45520;-50
2021/11/12 06:55:01;;;;;;;;;16.25;13.50;;;;;20.66;35.32;101410.91;5058066;28;46468;-50
2021/11/12 06:57:27;;;;;;;;;13.50;13.50;;;;;20.65;35.16;101408.31;5056720;28;45287;-51
2021/11/12 06:59:52;;;;;;;;;16.00;13.50;;;;;20.63;35.27;101400.50;5058022;28;45182;-49
2021/11/12 07:02:21;;;;;;;;;15.50;12.25;;;;;20.58;34.77;101391.94;5058244;28;45637;-46
2021/11/12 07:04:47;;;;;;;;;14.50;11.25;;;;;20.63;35.32;101404.88;5057607;28;45380;-47
2021/11/12 07:07:13;;;;;;;;;15.25;13.25;;;;;20.58;35.16;101402.47;5057700;28;45473;-46
2021/11/12 07:09:39;;;;;;;;;16.50;14.25;;;;;20.59;34.77;101398.06;5057889;28;45297;-47
2021/11/12 07:12:05;;;;;;;;;16.00;13.75;;;;;20.53;34.88;101388.69;5058388;28;45487;-45
2021/11/12 07:14:30;;;;;;;;;11.50;10.00;;;;;20.57;34.74;101406.03;5056286;28;47954;-53
2021/11/12 07:16:56;;;;;;;;;16.00;14.25;;;;;20.54;35.41;101406.19;5057652;28;45229;-42
2021/11/12 07:19:21;;;;;;;;;14.00;14.00;;;;;20.53;35.04;101415.03;5057760;28;45989;-51
2021/11/12 07:21:47;;;;;;;;;15.75;13.50;;;;;20.51;35.39;101412.44;5057905;28;45262;-46
2021/11/12 07:24:13;;;;;;;;;14.00;14.00;;;;;20.50;35.31;101401.97;5057542;28;46545;-45
2021/11/12 07:26:39;;;;;;;;;15.75;14.00;;;;;20.48;35.05;101404.69;5057497;28;45795;-50
2021/11/12 07:29:04;;;;;;;;;14.25;10.75;;;;;20.48;35.68;101403.81;5058018;28;45233;-44
2021/11/12 07:31:30;;;;;;;;;11.00;10.75;;;;;20.48;35.44;101411.72;5057750;28;45632;-47
2021/11/12 07:33:59;;;;;;;;;14.75;12.50;;;;;20.46;35.53;101395.13;5057267;28;46137;-45
2021/11/12 07:36:34;;;;;;;;;13.75;13.75;;;;;20.41;35.09;101386.63;5057398;28;45852;-50
2021/11/12 07:39:04;;;;;;;;;14.50;12.75;;;;;20.43;35.29;101388.25;5057578;28;45260;-44
2021/11/12 07:42:04;;;;;;;;;13.75;12.75;;;;;20.44;35.62;101389.13;5040149;28;45298;-49
2021/11/12 07:47:14;;;;;;;;;13.75;11.00;;;;;20.39;36.34;101384.91;5057169;28;45421;-50
2021/11/12 07:49:40;;;;;;;;;16.00;15.75;;;;;20.39;36.77;101382.28;5057313;28;45436;-51
2021/11/12 07:52:06;;;;;;;;;20.25;15.25;;;;;20.35;37.60;101372.78;5057650;28;45503;-51
2021/11/12 07:54:32;;;;;;;;;13.50;13.25;;;;;20.37;37.48;101364.84;5056883;28;45431;-47
2021/11/12 07:56:59;;;;;;;;;18.50;17.00;;;;;20.38;38.28;101364.75;5057075;28;45246;-53
2021/11/12 07:59:25;;;;;;;;;17.50;15.50;;;;;20.37;39.26;101360.41;5057250;28;45275;-49
2021/11/12 08:01:50;;;;;;;;;17.00;15.50;;;;;20.31;38.83;101351.94;5057203;28;45467;-49
2021/11/12 08:04:15;;;;;;;;;18.25;16.00;;;;;20.36;39.05;101361.34;5056821;28;46267;-45
2021/11/12 08:06:41;;;;;;;;;16.50;15.00;;;;;20.35;39.67;101366.69;5056942;28;45281;-41
2021/11/12 08:11:40;;;;;;;;;17.50;14.75;;;;;20.34;40.19;101421.09;5057304;28;45613;-41
2021/11/12 08:19:07;;;;;;;;;16.50;13.75;;;;;20.35;41.21;101438.59;5056920;28;45320;-43
2021/11/12 08:21:47;;;;;;;;;16.00;15.00;;;;;20.34;40.98;101431.63;5057163;28;45324;-48
2021/11/12 08:24:18;;;;;;;;;17.50;15.00;;;;;20.32;41.33;101401.91;5056830;28;46326;-47
2021/11/12 08:26:58;;;;;;;;;15.75;15.75;;;;;20.34;41.29;101388.66;5056028;28;45316;-44
2021/11/12 08:39:49;;;;;;;;;17.50;16.00;;;;;20.36;41.78;101394.72;5056875;28;45421;-41
2021/11/12 08:42:18;;;;;;;;;14.50;14.00;;;;;20.36;41.77;101397.34;5038552;28;45645;-42
2021/11/12 08:44:49;;;;;;;;;12.50;12.50;;;;;20.41;41.76;101405.03;5056264;28;47296;-41
2021/11/12 08:47:19;;;;;;;;;16.50;15.25;;;;;20.41;41.68;101397.97;5038235;28;45387;-42
2021/11/12 08:49:45;;;;;;;;;18.50;15.50;;;;;20.43;41.71;101403.19;5039003;28;45233;-41
2021/11/12 08:52:14;;;;;;;;;17.75;17.50;;;;;20.44;41.70;101404.91;5056750;28;45382;-44
2021/11/12 08:54:43;;;;;;;;;15.75;15.00;;;;;20.44;41.88;101402.28;5056336;28;45737;-43
2021/11/12 08:57:15;;;;;;;;;18.00;18.00;;;;;20.43;42.09;101382.13;5056425;28;45758;-44
2021/11/12 08:59:43;;;;;;;;;17.00;15.50;;;;;20.45;41.33;101380.28;5056604;28;45395;-48
2021/11/12 09:02:13;;;;;;;;;20.75;14.75;;;;;20.40;42.17;101380.47;5056758;28;45157;-43
2021/11/12 09:04:39;;;;;;;;;21.50;18.50;;;;;20.45;41.80;101388.19;5056421;28;46350;-41
2021/11/12 09:07:04;;;;;;;;;18.50;17.50;;;;;20.41;41.76;101384.81;5056050;28;45967;-42
2021/11/12 09:09:31;;;;;;;;;17.75;17.75;;;;;20.45;41.67;101402.19;5056128;28;45309;-40
2021/11/12 09:11:56;;;;;;;;;24.25;20.00;;;;;20.45;42.06;101402.19;5056471;28;45335;-41
2021/11/12 09:14:25;;;;;;;;;24.00;21.75;;;;;20.45;41.74;101407.47;5055822;28;46011;-44
2021/11/12 09:16:50;;;;;;;;;22.25;21.25;;;;;20.46;42.34;101410.94;5055908;28;45344;-42
2021/11/12 09:19:16;;;;;;;;;22.75;22.00;;;;;20.46;42.52;101410.94;5054768;28;45283;-44
2021/11/12 09:21:43;;;;;;;;;26.50;19.75;;;;;20.46;42.65;101411.81;5056448;28;45402;-41
2021/11/12 09:24:09;;;;;;;;;24.25;22.00;;;;;20.44;42.53;101408.38;5056108;28;46813;-41
2021/11/12 09:26:36;;;;;;;;;20.75;20.75;;;;;20.43;42.31;101397.94;5055820;28;45483;-44
2021/11/12 09:29:05;;;;;;;;;21.50;21.50;;;;;20.28;42.29;101363.47;5055933;28;45419;-43
2021/11/12 09:31:31;;;;;;;;;22.50;22.50;;;;;20.41;42.23;101390.09;5055946;28;45428;-47
2021/11/12 09:33:57;;;;;;;;;19.50;18.50;;;;;20.41;42.02;101390.09;5055537;28;46633;-44
2021/11/12 09:36:24;;;;;;;;;19.00;18.00;;;;;20.39;42.10;101377.00;5055741;28;46062;-46
2021/11/12 09:38:50;;;;;;;;;20.00;19.25;;;;;20.26;42.39;101362.69;5054933;28;45388;-45
2021/11/12 09:41:15;;;;;;;;;24.50;22.75;;;;;20.25;42.21;101371.50;5059425;28;45371;-46
2021/11/12 09:43:40;;;;;;;;;25.00;19.50;;;;;20.37;41.64;101388.53;5059286;28;46505;-43
2021/11/12 09:46:07;;;;;;;;;21.50;19.75;;;;;20.35;41.99;101385.97;5059255;28;45209;-44
2021/11/12 09:48:33;;;;;;;;;16.75;14.75;;;;;20.19;41.89;101356.00;5059069;28;45317;-47
2021/11/12 09:50:59;;;;;;;;;16.25;16.25;;;;;20.33;41.46;101379.06;5041198;28;45441;-48
2021/11/12 09:53:25;;;;;;;;;20.00;17.75;;;;;20.34;41.59;101378.13;5058994;28;46495;-48
2021/11/12 09:55:53;;;;;;;;;19.50;18.25;;;;;20.33;41.41;101361.50;5058717;28;46004;-48
2021/11/12 09:58:19;;;;;;;;;20.00;18.25;;;;;20.34;41.39;101350.03;5059144;28;45702;-45
2021/11/12 10:00:45;;;;;;;;;18.25;15.75;;;;;20.32;41.59;101330.84;5059367;28;45581;-47
2021/11/12 10:03:10;;;;;;;;;20.00;17.50;;;;;20.32;41.57;101322.06;5059188;28;46435;-48
2021/11/12 10:05:46;;;;;;;;;18.25;18.00;;;;;20.32;41.48;101319.44;5058671;28;45353;-53
2021/11/12 10:08:30;;;;;;;;;18.50;15.75;;;;;20.26;41.70;101312.69;5059214;28;45331;-51
2021/11/12 10:11:05;;;;;;;;;21.50;18.25;;;;;20.30;41.14;101324.78;5059044;28;45668;-54
2021/11/12 10:13:37;;;;;;;;;22.25;20.75;;;;;20.29;41.72;101317.81;5058585;28;46419;-52
2021/11/12 10:16:16;;;;;;;;;19.00;16.25;;;;;20.23;41.08;101318.09;5058612;28;45351;-57
2021/11/12 10:18:59;;;;;;;;;21.75;18.75;;;;;20.27;41.36;101321.44;5059196;28;45333;-52
2021/11/12 10:21:39;;;;;;;;;16.75;14.50;;;;;20.24;41.37;101322.41;5058979;28;45312;-49
2021/11/12 10:24:08;;;;;;;;;19.25;16.50;;;;;20.22;41.77;101335.66;5058502;28;46544;-56
2021/11/12 10:26:36;;;;;;;;;15.00;15.00;;;;;20.22;41.22;101329.56;5058547;28;45402;-55
2021/11/12 10:29:09;;;;;;;;;21.00;18.00;;;;;20.21;41.13;101327.84;5057248;28;45404;-56
2021/11/12 10:31:42;;;;;;;;;19.25;18.50;;;;;20.20;41.42;101332.25;5058858;28;45329;-56
2021/11/12 10:34:16;;;;;;;;;16.25;16.25;;;;;20.18;41.28;101325.34;5058319;28;45403;-56
2021/11/12 10:36:52;;;;;;;;;19.75;15.75;;;;;20.19;41.16;101306.00;5058882;28;45277;-54
2021/11/12 10:39:38;;;;;;;;;15.25;15.25;;;;;20.16;41.27;101301.75;5058571;28;45422;-54
2021/11/12 10:42:15;;;;;;;;;17.25;15.25;;;;;20.17;41.22;101328.91;5058702;28;45426;-56
2021/11/12 10:44:42;;;;;;;;;19.00;17.25;;;;;20.15;41.16;101347.41;5058280;28;46182;-54
2021/11/12 10:47:08;;;;;;;;;14.75;13.00;;;;;20.15;40.82;101336.00;5058526;28;45382;-56
2021/11/12 10:49:40;;;;;;;;;21.00;19.00;;;;;20.12;41.03;101330.91;5058057;28;45338;-55
2021/11/12 10:52:12;;;;;;;;;16.50;16.50;;;;;20.10;41.22;101307.28;5058684;28;45245;-56
2021/11/12 10:54:52;;;;;;;;;22.50;20.25;;;;;20.13;41.00;101301.88;5058045;28;47143;-54
2021/11/12 10:57:40;;;;;;;;;19.50;17.50;;;;;20.13;41.02;101282.59;5058476;28;45851;-50
2021/11/12 11:00:08;;;;;;;;;20.25;18.00;;;;;20.12;40.58;101267.75;5058321;28;45332;-53
2021/11/12 11:02:39;;;;;;;;;21.50;18.00;;;;;20.11;40.68;101255.53;5040488;28;45562;-51
2021/11/12 11:05:10;;;;;;;;;20.50;18.75;;;;;20.06;40.65;101253.09;5057654;28;47431;-55
2021/11/12 11:07:36;;;;;;;;;23.25;18.75;;;;;20.10;40.35;101259.06;5058007;28;45425;-56
2021/11/12 11:10:04;;;;;;;;;25.00;19.00;;;;;20.05;40.73;101244.34;5058143;28;45411;-54
2021/11/12 11:12:37;;;;;;;;;18.50;17.75;;;;;20.08;40.73;101246.84;5058369;28;45670;-53
2021/11/12 11:15:21;;;;;;;;;18.00;16.50;;;;;20.03;40.20;101230.41;5057732;28;45500;-55
2021/11/12 11:18:06;;;;;;;;;17.25;17.00;;;;;20.06;40.21;101232.91;5057014;28;45301;-53
2021/11/12 11:20:31;;;;;;;;;19.75;17.25;;;;;20.05;39.95;101246.97;5057937;28;45329;-55
2021/11/12 11:22:59;;;;;;;;;20.50;18.50;;;;;20.05;40.17;101261.91;5058000;28;45572;-55
2021/11/12 11:25:26;;;;;;;;;19.00;16.25;;;;;20.06;40.32;101264.47;5057587;28;45542;-56
2021/11/12 11:27:55;;;;;;;;;17.50;16.25;;;;;20.06;40.87;101243.41;5057709;28;45517;-54
2021/11/12 11:30:21;;;;;;;;;20.00;17.00;;;;;20.05;40.49;101240.88;5057878;28;45375;-55
2021/11/12 11:32:47;;;;;;;;;16.75;14.25;;;;;20.04;39.95;101245.25;5058284;28;45284;-56
2021/11/12 11:35:20;;;;;;;;;19.25;19.00;;;;;20.01;40.16;101229.59;5057340;28;47352;-56
2021/11/12 11:37:51;;;;;;;;;17.50;16.50;;;;;20.04;40.36;101258.41;5057784;28;45246;-56
2021/11/12 11:40:18;;;;;;;;;21.25;18.25;;;;;20.03;39.88;101269.88;5057991;28;45397;-55
2021/11/12 11:42:44;;;;;;;;;22.00;17.75;;;;;20.02;40.34;101255.00;5057890;28;45401;-56
2021/11/12 11:45:11;;;;;;;;;15.75;15.50;;;;;20.00;39.98;101225.31;5057441;28;46294;-55
2021/11/12 11:47:41;;;;;;;;;22.00;18.75;;;;;20.01;40.01;101240.13;5057346;28;45293;-55
2021/11/12 11:50:39;;;;;;;;;25.50;19.00;;;;;19.96;40.35;101264.94;5057523;28;45321;-54
2021/11/12 11:53:25;;;;;;;;;19.75;16.25;;;;;20.01;39.95;101260.34;5023111;28;45643;-54
2021/11/12 11:55:53;;;;;;;;;16.75;15.25;;;;;19.98;39.92;101266.59;5057262;28;45398;-50
2021/11/12 11:58:33;;;;;;;;;22.00;18.25;;;;;19.98;40.42;101252.59;5057654;28;45769;-52
2021/11/12 12:01:19;;;;;;;;;18.50;17.25;;;;;19.97;39.93;101229.81;5057103;28;45414;-54
2021/11/12 12:03:46;;;;;;;;;18.25;17.00;;;;;19.91;40.54;101233.59;5057242;28;45375;-53
2021/11/12 12:06:19;;;;;;;;;21.00;18.00;;;;;19.96;39.99;101231.63;5056928;28;45442;-55
2021/11/12 12:09:01;;;;;;;;;20.50;18.75;;;;;19.97;40.61;101221.94;5057154;28;45430;-51
2021/11/12 12:11:26;;;;;;;;;20.75;17.75;;;;;19.95;40.08;101222.03;5057138;28;45440;-54
2021/11/12 12:14:31;;;;;;;;;19.00;19.00;;;;;19.91;40.21;101215.19;5057195;28;45429;-50
2021/11/12 12:17:23;;;;;;;;;17.50;17.00;;;;;19.93;40.16;101214.22;5057019;28;45828;-53
2021/11/12 12:20:06;;;;;;;;;23.50;19.50;;;;;19.93;40.52;101205.44;5050515;28;45816;-55
2021/11/12 13:25:44;;;;;;;;;16.25;15.75;;;;;19.85;40.33;101118.13;5062939;28;45983;-54
2021/11/12 13:28:19;;;;;;;;;18.25;17.00;;;;;19.83;40.19;101104.19;5062922;28;45283;-56
2021/11/12 13:30:53;;;;;;;;;15.50;15.50;;;;;19.83;39.97;101112.09;5063062;28;45392;-57
2021/11/12 13:33:39;;;;;;;;;16.00;15.25;;;;;19.82;40.42;101113.88;5063288;28;45401;-57
2021/11/12 13:36:07;;;;;;;;;18.25;16.75;;;;;19.82;39.86;101105.97;5062699;28;46487;-53
2021/11/12 13:38:39;;;;;;;;;20.50;18.00;;;;;19.81;39.80;101096.38;5062742;28;45895;-55
2021/11/12 13:41:07;;;;;;;;;16.75;15.50;;;;;19.80;40.01;101099.06;5062887;28;45340;-52
2021/11/12 13:43:35;;;;;;;;;16.00;16.00;;;;;19.81;40.01;101090.25;5061624;28;45355;-55
2021/11/12 13:46:01;;;;;;;;;17.25;14.75;;;;;19.80;40.52;101081.53;5062547;28;47293;-56
2021/11/12 13:48:27;;;;;;;;;16.00;14.75;;;;;19.81;40.22;101087.63;5062662;28;45792;-54
2021/11/12 13:50:57;;;;;;;;;18.25;15.25;;;;;19.81;39.80;101085.00;5063117;28;45267;-54
2021/11/12 13:53:28;;;;;;;;;16.75;16.25;;;;;19.78;39.92;101081.63;5062972;28;45319;-54
2021/11/12 13:55:55;;;;;;;;;17.25;17.25;;;;;19.79;39.86;101077.19;5062833;28;46486;-53
2021/11/12 13:58:23;;;;;;;;;13.25;13.25;;;;;19.75;39.98;101065.97;5062508;28;45348;-53
2021/11/12 14:00:50;;;;;;;;;17.00;15.25;;;;;19.78;40.24;101065.84;5062599;28;45264;-51
2021/11/12 14:03:21;;;;;;;;;18.00;15.00;;;;;19.78;40.15;101073.72;5062765;28;45487;-55
2021/11/12 14:05:56;;;;;;;;;15.25;15.25;;;;;19.77;39.88;101074.66;5062215;28;47352;-57
2021/11/12 14:08:21;;;;;;;;;16.50;15.25;;;;;19.78;40.04;101076.34;5062381;28;45920;-56
2021/11/12 14:10:52;;;;;;;;;17.50;15.75;;;;;19.78;40.27;101070.22;5062438;28;45434;-55
2021/11/12 14:13:21;;;;;;;;;18.50;16.50;;;;;19.80;40.41;101073.63;5062548;28;45513;-53
2021/11/12 14:16:07;;;;;;;;;17.00;15.75;;;;;19.80;40.08;101071.00;5061967;28;47512;-56
2021/11/12 14:24:47;;;;;;;;;17.25;15.00;;;;;19.77;39.83;101048.34;5062448;28;45363;-55
2021/11/12 14:35:33;;;;;;;;;17.25;15.75;;;;;19.76;40.02;101048.41;5058835;28;45340;-51
2021/11/12 14:46:42;;;;;;;;;13.00;12.50;;;;;19.75;40.15;101051.94;5058813;28;45218;-55
2021/11/12 14:49:37;;;;;;;;;14.25;14.25;;;;;19.75;40.21;101044.06;5058296;28;45541;-56
2021/11/12 14:54:40;;;;;;;;;16.00;15.25;;;;;19.73;40.17;101036.25;5058383;28;45296;-54
2021/11/12 14:59:50;;;;;;;;;16.50;15.50;;;;;19.74;40.45;101043.22;5058130;28;45916;-58
2021/11/12 15:02:15;;;;;;;;;15.25;15.25;;;;;19.73;40.32;101046.78;5058196;28;45511;-54
2021/11/12 15:04:41;;;;;;;;;18.00;14.75;;;;;19.69;40.46;101047.00;5058424;28;45381;-55
2021/11/12 15:07:07;;;;;;;;;16.75;14.00;;;;;19.72;40.45;101055.59;5058370;28;45230;-53
2021/11/12 15:09:35;;;;;;;;;17.25;17.25;;;;;19.71;40.20;101053.88;5058058;28;45550;-55
2021/11/12 15:12:03;;;;;;;;;17.75;15.50;;;;;19.72;40.43;101055.59;5058048;28;45862;-55
2021/11/12 15:14:33;;;;;;;;;17.50;14.00;;;;;19.71;40.00;101058.31;5057006;28;45409;-57
2021/11/12 15:16:58;;;;;;;;;17.25;14.25;;;;;19.67;39.95;101052.34;5058637;28;45324;-55
2021/11/12 15:19:25;;;;;;;;;15.00;15.00;;;;;19.70;40.12;101039.03;5039823;28;47580;-56
2021/11/12 15:34:52;;;;;;;;;17.00;15.75;;;;;19.69;40.37;101049.63;5057809;28;45443;-55
2021/11/12 15:40:10;;;;;;;;;13.75;13.75;;;;;19.67;40.28;101057.59;5057510;28;45280;-50
2021/11/12 15:45:07;;;;;;;;;16.25;15.25;;;;;19.67;40.52;101041.84;5058076;28;45507;-54
2021/11/12 15:47:34;;;;;;;;;19.00;17.25;;;;;19.67;40.28;101046.22;5056615;28;45438;-50
2021/11/12 15:50:14;;;;;;;;;12.00;12.00;;;;;19.65;40.31;101053.31;5057598;28;46360;-48
2021/11/12 15:58:26;;;;;;;;;15.75;14.50;;;;;19.65;40.33;101064.72;5057685;28;45246;-53
2021/11/12 16:26:58;;;;;;;;;15.50;13.50;;;;;19.59;40.53;101068.50;5057215;28;45267;-48
2021/11/12 16:32:05;;;;;;;;;15.50;14.50;;;;;19.61;40.69;101076.28;5056903;28;45294;-52
2021/11/12 16:34:35;;;;;;;;;14.75;14.00;;;;;19.61;40.44;101081.56;5057088;28;45903;-49
2021/11/12 16:37:02;;;;;;;;;12.75;12.75;;;;;19.60;40.54;101077.22;5057219;28;45320;-48
2021/11/12 16:39:47;;;;;;;;;17.25;14.25;;;;;19.55;40.28;101066.91;5056973;28;45178;-50
2021/11/12 16:42:41;;;;;;;;;13.25;13.00;;;;;19.55;40.39;101064.28;5056565;28;46439;-52
2021/11/12 16:50:26;;;;;;;;;15.50;15.50;;;;;19.59;40.52;101070.25;5056904;28;45297;-48
2021/11/12 16:53:10;;;;;;;;;12.25;12.25;;;;;19.59;40.17;101065.00;5038269;28;48075;-52
2021/11/12 16:58:19;;;;;;;;;13.50;12.00;;;;;19.58;40.21;101066.78;5056661;28;45452;-50
2021/11/12 17:13:50;;;;;;;;;15.25;15.25;;;;;19.57;40.45;101045.81;5056157;28;45318;-48
2021/11/12 17:48:47;;;;;;;;;11.75;10.25;;;;;19.51;40.07;101004.03;5055768;28;45512;-52
2021/11/12 17:51:42;;;;;;;;;11.75;11.25;;;;;19.51;40.15;101004.91;5055985;28;45332;-52